Red Owl, South Dakota
Current Conditions -  °F | °C
As of 9:58 PM on Saturday 20 Dec 2014 (Local Time) from KRCA Reporting Station
Broken Clouds Broken Clouds  
Wind Chill: 29°   Ceiling: 13000
Heat Index: 33°   Visibility: 10mi
Dew Point: 26°   Wind: 5mph
Humidity: 74%   Direction: 230°SW
Pressure: 29.78"   Gusts: NA
Location:  44.7°N, 102.55°W
Report Text: KRCA 210458Z AUTO 23004KT 10SM BKN130 01/M03 A2978 RMK AO2 SLP107 T00071035 $
Loading
Personal Weather Stations






























Interactive Weather Map New forecast layout! Learn more

10-Day Weather Forecast

Advertisements
Track Severe Weather on mobile